Time;durP1;ratioP1;P1;durP2;ratioP2;P2;SDS_P1;SDS_P2;PMS_P1;PMS_P2;Temp;Humidity;BMP_temperature;BMP_pressure;BME280_temperature;BME280_humidity;BME280_pressure;Samples;Min_cycle;Max_cycle;Signal;HPM_P1;HPM_P2
2023/02/09 00:01:35;;;;;;;15.20;10.32;;;;;;;14.71;37.29;102811.88;5112084;28;20447;-61
2023/02/09 00:04:04;;;;;;;19.45;10.38;;;;;;;14.68;37.94;102813.81;5112094;28;20047;-63
2023/02/09 00:06:32;;;;;;;15.15;10.05;;;;;;;14.63;37.59;102805.91;5112175;28;20051;-63
2023/02/09 00:09:01;;;;;;;18.58;10.38;;;;;;;14.60;38.59;102804.22;5112078;28;20105;-61
2023/02/09 00:14:18;;;;;;;16.35;10.02;;;;;;;14.54;37.99;102800.88;5112405;28;20044;-63
2023/02/09 00:16:49;;;;;;;17.10;10.63;;;;;;;14.49;38.00;102797.50;5112098;28;20597;-64
2023/02/09 00:19:19;;;;;;;17.30;10.60;;;;;;;14.47;38.12;102793.97;5111884;28;20480;-63
2023/02/09 00:21:48;;;;;;;15.45;10.07;;;;;;;14.43;38.54;102793.16;5112356;28;20138;-63
2023/02/09 00:24:16;;;;;;;19.55;11.30;;;;;;;14.38;37.53;102797.84;5111870;28;20073;-63
2023/02/09 00:26:46;;;;;;;15.50;9.98;;;;;;;14.35;37.99;102795.25;5111797;28;20082;-63
2023/02/09 00:29:14;;;;;;;18.20;11.13;;;;;;;14.32;38.50;102796.25;5111852;28;20488;-63
2023/02/09 00:31:43;;;;;;;20.02;11.45;;;;;;;14.31;38.81;102796.31;5111906;28;20044;-63
2023/02/09 00:34:11;;;;;;;17.15;10.73;;;;;;;14.28;38.50;102794.63;5111849;28;20819;-62
2023/02/09 00:36:39;;;;;;;17.38;10.05;;;;;;;14.24;37.94;102789.38;5111597;28;20046;-63
2023/02/09 00:39:08;;;;;;;17.38;10.90;;;;;;;14.21;37.77;102798.44;5111572;28;20059;-62
2023/02/09 00:44:23;;;;;;;16.23;10.00;;;;;;;14.14;38.70;102788.84;5111881;28;20419;-62
2023/02/09 00:46:52;;;;;;;19.88;11.10;;;;;;;14.09;38.63;102788.13;5111688;28;20100;-62
2023/02/09 00:49:20;;;;;;;18.88;11.20;;;;;;;14.09;38.90;102787.22;5111778;28;20043;-62
2023/02/09 00:51:48;;;;;;;18.98;10.30;;;;;;;14.04;38.43;102787.41;5111517;28;20051;-62
2023/02/09 00:54:16;;;;;;;17.42;10.73;;;;;;;14.02;38.83;102782.09;5111713;28;20051;-63
2023/02/09 00:56:45;;;;;;;19.40;11.02;;;;;;;14.00;38.43;102778.59;5111448;28;20184;-62
2023/02/09 00:59:13;;;;;;;15.85;10.05;;;;;;;13.98;38.98;102779.56;5111530;28;20054;-62
2023/02/09 01:01:43;;;;;;;18.60;10.40;;;;;;;13.94;38.64;102772.56;5111630;28;20042;-63
2023/02/09 01:04:11;;;;;;;18.33;11.30;;;;;;;13.90;38.99;102769.09;5112872;28;20043;-63
2023/02/09 01:06:40;;;;;;;18.88;10.55;;;;;;;13.89;39.07;102764.66;5115260;28;20043;-63
2023/02/09 01:09:08;;;;;;;18.27;10.82;;;;;;;13.86;39.21;102767.44;5115251;28;20075;-63
2023/02/09 01:11:36;;;;;;;17.50;10.57;;;;;;;13.84;39.47;102766.63;5115075;28;20086;-63
2023/02/09 01:14:05;;;;;;;18.10;11.23;;;;;;;13.82;38.97;102757.75;5115005;28;20446;-62
2023/02/09 01:16:33;;;;;;;18.77;10.48;;;;;;;13.83;39.97;102754.16;5114870;28;20096;-63
2023/02/09 01:19:03;;;;;;;19.30;10.35;;;;;;;13.87;40.71;102750.41;5114813;28;20043;-63
2023/02/09 01:21:32;;;;;;;16.70;10.63;;;;;;;13.94;40.85;102748.41;5114828;28;20404;-62
2023/02/09 01:24:00;;;;;;;17.10;10.60;;;;;;;14.04;40.93;102752.50;5114980;28;20051;-63
2023/02/09 01:26:28;;;;;;;16.35;9.45;;;;;;;14.14;40.78;102753.94;5096089;28;20043;-64
2023/02/09 01:28:56;;;;;;;16.25;9.75;;;;;;;14.25;40.85;102757.13;5114808;28;20047;-63
2023/02/09 01:31:26;;;;;;;17.50;10.23;;;;;;;14.36;40.71;102751.34;5114592;28;20050;-62
2023/02/09 01:33:57;;;;;;;16.90;10.32;;;;;;;14.46;40.42;102749.25;5114842;28;20043;-62
2023/02/09 01:36:28;;;;;;;17.48;10.38;;;;;;;14.56;40.36;102742.59;5114593;28;20040;-62
2023/02/09 01:38:58;;;;;;;16.63;10.02;;;;;;;14.64;40.33;102732.44;5114506;28;20066;-61
2023/02/09 01:41:27;;;;;;;16.83;10.25;;;;;;;14.77;40.05;102731.06;5114554;28;20468;-62
2023/02/09 01:43:59;;;;;;;14.32;9.85;;;;;;;14.83;39.95;102722.75;5114526;28;20549;-62
2023/02/09 01:46:30;;;;;;;17.45;9.85;;;;;;;14.90;39.67;102715.31;5114659;28;20050;-63
2023/02/09 01:49:05;;;;;;;17.67;10.40;;;;;;;14.94;39.57;102719.63;5114438;28;20134;-63
2023/02/09 01:51:38;;;;;;;16.85;10.25;;;;;;;14.95;39.80;102715.13;5114174;28;20050;-61
2023/02/09 01:54:07;;;;;;;;;;;;;;;14.94;39.45;102708.00;5114763;28;20127;-62
2023/02/09 01:56:38;;;;;;;16.13;10.23;;;;;;;14.91;39.38;102700.06;5114102;28;20018;-62
2023/02/09 01:59:07;;;;;;;15.93;9.63;;;;;;;14.88;39.48;102701.97;5114087;28;20074;-63
2023/02/09 02:01:36;;;;;;;16.83;10.52;;;;;;;14.86;39.25;102695.78;5114186;28;20044;-62
2023/02/09 02:04:06;;;;;;;17.55;11.05;;;;;;;14.81;39.37;102697.75;5114024;28;20123;-62
2023/02/09 02:06:36;;;;;;;16.20;10.10;;;;;;;14.80;39.11;102704.06;5114027;28;20139;-62
2023/02/09 02:09:10;;;;;;;16.25;10.45;;;;;;;14.77;39.58;102697.94;5113746;28;20051;-62
2023/02/09 02:11:40;;;;;;;17.52;10.73;;;;;;;14.73;39.65;102694.47;5114014;28;20055;-63
2023/02/09 02:14:28;;;;;;;15.15;9.70;;;;;;;14.69;39.53;102698.25;5113931;28;20048;-62
2023/02/09 02:17:07;;;;;;;16.00;10.40;;;;;;;14.64;39.63;102700.22;5113809;28;20144;-63
2023/02/09 02:20:09;;;;;;;15.80;10.23;;;;;;;14.56;39.54;102687.06;5113619;28;20892;-63
2023/02/09 02:23:00;;;;;;;16.75;10.20;;;;;;;14.55;39.73;102696.06;5109123;28;20442;-63
2023/02/09 02:25:56;;;;;;;16.13;10.27;;;;;;;14.49;39.41;102690.94;5113610;28;20050;-61
2023/02/09 02:28:41;;;;;;;16.77;10.55;;;;;;;14.46;39.60;102690.16;5113528;28;20672;-63
2023/02/09 02:31:54;;;;;;;14.98;9.85;;;;;;;14.42;39.30;102689.38;5113480;28;20575;-62
2023/02/09 02:34:31;;;;;;;15.07;10.18;;;;;;;14.38;39.29;102692.22;5077139;28;20054;-63
2023/02/09 02:37:16;;;;;;;14.85;9.88;;;;;;;14.33;38.91;102690.59;5113522;28;20104;-62
2023/02/09 02:39:50;;;;;;;18.42;10.90;;;;;;;14.29;38.35;102683.59;5113211;28;20055;-63
2023/02/09 02:45:18;;;;;;;18.65;11.88;;;;;;;14.20;38.20;102683.94;5113251;28;20047;-63
2023/02/09 02:47:55;;;;;;;17.85;11.15;;;;;;;14.17;37.31;102685.84;5113209;28;20040;-63
2023/02/09 02:50:29;;;;;;;15.27;10.05;;;;;;;14.12;38.25;102688.72;5113205;28;20404;-63
2023/02/09 02:53:01;;;;;;;17.30;10.88;;;;;;;14.09;38.21;102691.53;5113038;28;20043;-63
2023/02/09 02:55:32;;;;;;;16.93;11.03;;;;;;;14.06;36.87;102693.41;5113171;28;20100;-63
2023/02/09 02:58:06;;;;;;;15.73;11.00;;;;;;;13.99;37.70;102685.59;5112945;28;20046;-63
2023/02/09 03:00:39;;;;;;;17.42;11.75;;;;;;;13.98;37.55;102688.31;5112957;28;20492;-62
2023/02/09 03:03:12;;;;;;;16.75;10.23;;;;;;;13.95;38.09;102689.31;5113224;28;20043;-63
2023/02/09 03:05:42;;;;;;;15.93;10.00;;;;;;;13.89;38.88;102683.28;5112898;28;20045;-64
2023/02/09 03:08:10;;;;;;;16.15;10.05;;;;;;;13.86;38.82;102689.63;5112829;28;20113;-63
2023/02/09 03:10:42;;;;;;;16.27;10.25;;;;;;;13.82;38.62;102687.13;5113009;28;20055;-63
2023/02/09 03:13:24;;;;;;;15.75;10.75;;;;;;;13.76;38.89;102688.22;5112646;28;20072;-61
2023/02/09 03:16:06;;;;;;;17.48;10.85;;;;;;;13.74;38.73;102690.97;5112746;28;20043;-61
2023/02/09 03:18:43;;;;;;;16.13;10.27;;;;;;;13.70;39.00;102688.41;5112641;28;20382;-63
2023/02/09 03:21:18;;;;;;;15.50;10.27;;;;;;;13.67;39.00;102684.03;5112670;28;20096;-62
2023/02/09 03:23:54;;;;;;;15.52;9.85;;;;;;;13.62;39.60;102680.66;5112577;28;20463;-62
2023/02/09 03:26:28;;;;;;;16.67;10.60;;;;;;;13.59;39.16;102682.56;5112353;28;20039;-64
2023/02/09 03:28:59;;;;;;;15.88;10.23;;;;;;;13.53;38.46;102675.63;5112434;28;20413;-65
2023/02/09 03:31:28;;;;;;;15.43;10.45;;;;;;;13.52;39.21;102686.38;5112423;28;20485;-63
2023/02/09 03:33:58;;;;;;;15.50;10.10;;;;;;;13.49;39.05;102691.84;5112418;28;20088;-62
2023/02/09 03:36:33;;;;;;;14.20;10.25;;;;;;;13.45;38.81;102704.47;5112330;28;20047;-62
2023/02/09 03:39:01;;;;;;;14.32;9.98;;;;;;;13.43;38.81;102700.97;5112156;28;20438;-62
2023/02/09 03:41:29;;;;;;;17.05;10.32;;;;;;;13.39;39.31;102699.31;5112419;28;20048;-62
2023/02/09 03:46:43;;;;;;;15.20;8.95;;;;;;;13.38;39.64;102697.56;5112280;28;20047;-61
2023/02/09 03:49:13;;;;;;;16.80;10.32;;;;;;;13.44;40.04;102697.38;5111675;28;20047;-63
2023/02/09 03:51:43;;;;;;;14.30;9.93;;;;;;;13.51;40.11;102704.28;5110960;28;20112;-64
2023/02/09 03:54:11;;;;;;;15.25;10.00;;;;;;;13.61;40.11;102700.38;5111028;28;20043;-64
2023/02/09 03:56:39;;;;;;;14.43;9.77;;;;;;;13.71;39.94;102692.88;5111172;28;20044;-63
2023/02/09 03:59:07;;;;;;;15.25;9.85;;;;;;;13.81;39.83;102690.75;5111052;28;20097;-62
2023/02/09 04:01:35;;;;;;;14.73;9.35;;;;;;;13.92;39.74;102693.94;5111184;28;20150;-62
2023/02/09 04:04:04;;;;;;;14.93;9.63;;;;;;;14.00;39.51;102692.72;5111294;28;20488;-62
2023/02/09 04:06:34;;;;;;;14.40;9.63;;;;;;;14.10;39.52;102690.59;5111202;28;20071;-62
2023/02/09 04:09:05;;;;;;;15.63;9.05;;;;;;;14.22;39.27;102702.69;5111285;28;20055;-62
2023/02/09 04:11:33;;;;;;;16.42;9.25;;;;;;;14.31;39.30;102700.53;5111254;28;20044;-63
2023/02/09 04:14:02;;;;;;;15.48;10.15;;;;;;;14.39;39.12;102694.88;5111104;28;20093;-63
2023/02/09 04:16:30;;;;;;;14.30;9.38;;;;;;;14.49;39.11;102692.75;5111302;28;20048;-61
2023/02/09 04:18:59;;;;;;;13.55;9.18;;;;;;;14.56;38.77;102686.19;5111146;28;20065;-62
2023/02/09 04:21:27;;;;;;;16.30;10.30;;;;;;;14.59;38.69;102696.84;5111117;28;20043;-62
2023/02/09 04:23:55;;;;;;;17.77;10.32;;;;;;;14.60;38.64;102687.84;5111073;28;20090;-63
2023/02/09 04:26:24;;;;;;;15.68;10.07;;;;;;;14.59;38.64;102686.97;5111048;28;20039;-63
2023/02/09 04:28:55;;;;;;;15.88;10.45;;;;;;;14.59;38.56;102688.78;5110979;28;20436;-63
2023/02/09 04:31:25;;;;;;;14.60;9.88;;;;;;;14.58;38.68;102685.22;5110671;28;20051;-62
2023/02/09 04:33:54;;;;;;;14.07;9.73;;;;;;;14.55;38.71;102688.00;5111838;28;20048;-63
2023/02/09 04:36:22;;;;;;;15.43;10.13;;;;;;;14.54;38.62;102680.88;5111914;28;20072;-62
2023/02/09 04:38:51;;;;;;;15.05;10.40;;;;;;;14.55;38.58;102681.75;5112541;28;20408;-63
2023/02/09 04:41:19;;;;;;;16.02;10.07;;;;;;;14.59;38.80;102676.22;5115581;28;20077;-63
2023/02/09 04:43:48;;;;;;;16.73;10.45;;;;;;;14.67;38.57;102683.09;5115509;28;20396;-61
2023/02/09 04:46:18;;;;;;;14.68;9.77;;;;;;;14.74;38.62;102680.09;5115702;28;20047;-62
2023/02/09 04:48:50;;;;;;;13.75;9.85;;;;;;;14.80;38.37;102685.25;5115652;28;20048;-63
2023/02/09 04:51:18;;;;;;;15.23;10.25;;;;;;;14.87;38.42;102683.22;5115527;28;20071;-63
2023/02/09 04:53:46;;;;;;;14.70;9.95;;;;;;;14.90;38.38;102680.41;5115415;28;20559;-62
2023/02/09 04:56:16;;;;;;;14.45;9.85;;;;;;;14.98;38.09;102682.78;5115372;28;20075;-61
2023/02/09 05:01:32;;;;;;;14.77;10.13;;;;;;;15.10;38.02;102687.66;5115443;28;20051;-62
2023/02/09 05:04:00;;;;;;;15.55;9.70;;;;;;;15.17;37.93;102683.78;5115297;28;20044;-62
2023/02/09 05:06:29;;;;;;;14.30;9.98;;;;;;;15.23;37.83;102678.13;5115258;28;20044;-62
2023/02/09 05:08:57;;;;;;;14.63;10.00;;;;;;;15.31;37.72;102680.50;5115146;28;20089;-62
2023/02/09 05:11:29;;;;;;;13.45;9.90;;;;;;;15.38;37.65;102680.19;5115333;28;20043;-62
2023/02/09 05:13:57;;;;;;;15.65;10.38;;;;;;;15.42;37.70;102680.94;5115018;28;20064;-62
2023/02/09 05:16:25;;;;;;;14.73;10.07;;;;;;;15.49;37.57;102689.63;5115013;28;20126;-61
2023/02/09 05:18:55;;;;;;;15.15;9.68;;;;;;;15.59;37.42;102685.59;5114739;28;20044;-61
2023/02/09 05:21:23;;;;;;;13.75;9.38;;;;;;;15.65;37.44;102685.38;5114839;28;20472;-62
2023/02/09 05:23:51;;;;;;;15.25;10.45;;;;;;;15.73;37.29;102694.00;5114733;28;20044;-62
2023/02/09 05:26:19;;;;;;;13.48;9.57;;;;;;;15.80;37.24;102687.41;5114683;28;20043;-62
2023/02/09 05:28:48;;;;;;;15.25;10.18;;;;;;;15.87;37.10;102683.50;5114654;28;20516;-62
2023/02/09 05:31:16;;;;;;;14.05;9.85;;;;;;;15.93;36.96;102688.63;5114948;28;20039;-61
2023/02/09 05:33:44;;;;;;;16.17;10.32;;;;;;;15.97;37.09;102687.53;5114576;28;20071;-61
2023/02/09 05:36:14;;;;;;;14.07;9.77;;;;;;;16.04;36.81;102682.78;5114897;28;20118;-61
2023/02/09 05:38:42;;;;;;;13.82;9.85;;;;;;;16.08;36.73;102683.50;5114380;28;20070;-60
2023/02/09 05:42:13;;;;;;;15.23;10.48;;;;;;;16.07;36.73;102693.38;5114419;28;20047;-61
2023/02/09 05:44:02;;;;;;;14.93;10.20;;;;;;;16.05;36.68;102689.91;5114383;28;20039;-61
2023/02/09 05:46:30;;;;;;;13.73;9.55;;;;;;;16.08;36.71;102694.25;5114322;28;20457;-61
2023/02/09 05:48:58;;;;;;;12.60;9.63;;;;;;;16.05;36.73;102689.03;5114384;28;20051;-61
2023/02/09 05:51:28;;;;;;;13.18;9.15;;;;;;;16.08;36.68;102691.56;5114005;28;20236;-61
2023/02/09 05:53:56;;;;;;;15.02;9.75;;;;;;;16.08;36.65;102699.66;5114533;28;20087;-61
2023/02/09 05:56:24;;;;;;;14.48;9.60;;;;;;;16.07;36.72;102692.50;5114165;28;20046;-61
2023/02/09 05:58:52;;;;;;;13.75;9.00;;;;;;;16.11;36.74;102699.50;5114060;28;20044;-61
2023/02/09 06:01:20;;;;;;;13.50;9.35;;;;;;;16.14;36.54;102694.88;5113673;28;20086;-62
2023/02/09 06:03:48;;;;;;;14.20;9.77;;;;;;;16.18;36.61;102700.97;5115144;28;20051;-61
2023/02/09 06:06:17;;;;;;;14.05;9.52;;;;;;;16.21;36.50;102695.44;5115010;28;20126;-64
2023/02/09 06:08:46;;;;;;;13.05;9.45;;;;;;;16.26;36.41;102693.44;5115160;28;20532;-61
2023/02/09 06:11:14;;;;;;;13.30;9.05;;;;;;;16.28;36.45;102695.09;5115747;28;20088;-61
2023/02/09 06:13:42;;;;;;;14.30;9.40;;;;;;;16.27;36.37;102690.66;5115766;28;20511;-61
2023/02/09 06:16:11;;;;;;;14.88;9.73;;;;;;;16.25;36.27;102691.69;5115106;28;20047;-61
2023/02/09 06:18:39;;;;;;;12.77;9.20;;;;;;;16.22;36.37;102689.16;5113901;28;20100;-61
2023/02/09 06:21:07;;;;;;;13.55;9.40;;;;;;;16.17;36.35;102693.84;5113532;28;20054;-62
2023/02/09 06:23:35;;;;;;;13.88;9.85;;;;;;;16.13;36.37;102690.44;5113532;28;20043;-61
2023/02/09 06:26:07;;;;;;;12.73;8.52;;;;;;;16.09;36.42;102685.25;5113537;28;20136;-62
2023/02/09 06:28:36;;;;;;;15.95;10.38;;;;;;;16.02;36.37;102685.53;5113558;28;20050;-61
2023/02/09 06:31:05;;;;;;;15.43;9.38;;;;;;;15.97;36.83;102683.97;5113200;28;20126;-61
2023/02/09 06:33:35;;;;;;;13.80;9.80;;;;;;;15.92;37.60;102683.28;5113206;28;20066;-60
2023/02/09 06:36:04;;;;;;;15.27;9.50;;;;;;;15.85;38.38;102681.84;5113213;28;20044;-61
2023/02/09 06:38:33;;;;;;;15.75;9.05;;;;;;;15.80;39.14;102679.31;5112901;28;20047;-63
2023/02/09 06:41:01;;;;;;;15.98;9.13;;;;;;;15.75;38.81;102684.06;5112958;28;20100;-60
2023/02/09 06:43:31;;;;;;;15.55;9.48;;;;;;;15.68;39.00;102685.25;5112958;28;20489;-62
2023/02/09 06:46:05;;;;;;;15.55;9.98;;;;;;;15.63;39.11;102687.25;5112836;28;20051;-62
2023/02/09 06:48:33;;;;;;;18.88;9.68;;;;;;;15.55;38.88;102681.31;5112975;28;20047;-61
2023/02/09 06:51:01;;;;;;;17.50;9.80;;;;;;;15.49;38.58;102689.63;5112660;28;20058;-62
2023/02/09 06:53:30;;;;;;;14.10;9.43;;;;;;;15.42;38.96;102687.19;5112790;28;20488;-62
2023/02/09 06:56:01;;;;;;;17.50;10.13;;;;;;;15.37;38.36;102686.53;5112843;28;20487;-62
2023/02/09 06:58:31;;;;;;;15.70;9.55;;;;;;;15.31;38.06;102689.44;5112840;28;20047;-62
2023/02/09 07:01:02;;;;;;;16.55;9.77;;;;;;;15.26;38.03;102694.16;5112209;28;20051;-61
2023/02/09 07:03:30;;;;;;;14.35;9.52;;;;;;;15.22;38.36;102697.03;5112703;28;20054;-61
2023/02/09 07:06:04;;;;;;;15.95;10.25;;;;;;;15.17;38.71;102695.41;5112661;28;20048;-63
2023/02/09 07:08:32;;;;;;;16.60;9.40;;;;;;;15.16;38.88;102695.47;5112683;28;20047;-62
2023/02/09 07:11:05;;;;;;;13.80;9.68;;;;;;;15.18;39.16;102696.28;5112518;28;20050;-63
2023/02/09 07:13:35;;;;;;;20.20;9.65;;;;;;;15.22;39.06;102684.44;5112701;28;20047;-63
2023/02/09 07:16:04;;;;;;;15.15;9.52;;;;;;;15.31;39.09;102685.88;5112538;28;20040;-63
2023/02/09 07:18:33;;;;;;;14.43;9.13;;;;;;;15.36;39.17;102689.28;5112518;28;20040;-62
2023/02/09 07:21:03;;;;;;;14.68;9.07;;;;;;;15.42;38.74;102684.50;5112373;28;20143;-61
2023/02/09 07:23:31;;;;;;;15.68;9.07;;;;;;;15.50;38.72;102692.25;5112331;28;20048;-61
2023/02/09 07:26:02;;;;;;;11.95;8.40;;;;;;;15.56;38.67;102685.75;5112432;28;20063;-62
2023/02/09 07:28:31;;;;;;;13.38;8.73;;;;;;;15.63;38.46;102687.25;5112120;28;20043;-61
2023/02/09 07:31:04;;;;;;;13.13;9.13;;;;;;;15.72;38.41;102690.41;5112218;28;20074;-61
2023/02/09 07:33:33;;;;;;;15.45;9.30;;;;;;;15.81;38.35;102688.28;5112185;28;20401;-62
2023/02/09 07:36:04;;;;;;;12.63;8.65;;;;;;;15.89;38.20;102689.69;5112340;28;20122;-62
2023/02/09 07:38:32;;;;;;;15.18;9.50;;;;;;;15.96;38.08;102691.19;5111701;28;20385;-63
2023/02/09 07:41:01;;;;;;;14.80;9.55;;;;;;;16.01;38.05;102691.84;5112019;28;20369;-62
2023/02/09 07:43:30;;;;;;;12.90;8.77;;;;;;;16.09;37.95;102693.31;5111582;28;20050;-61
2023/02/09 07:46:07;;;;;;;15.18;9.18;;;;;;;16.16;37.76;102687.59;5111533;28;20054;-62
2023/02/09 07:48:36;;;;;;;15.88;9.32;;;;;;;16.23;37.70;102682.81;5111970;28;20056;-62
2023/02/09 07:51:05;;;;;;;14.40;9.02;;;;;;;16.30;37.73;102689.66;5111992;28;20054;-62
2023/02/09 07:53:33;;;;;;;15.00;9.18;;;;;;;16.37;37.45;102691.13;5111718;28;20040;-61
2023/02/09 07:56:01;;;;;;;14.13;9.27;;;;;;;16.38;37.34;102665.94;5111768;28;20078;-61
2023/02/09 07:58:30;;;;;;;15.88;9.07;;;;;;;16.52;37.33;102676.97;5111850;28;20055;-59
2023/02/09 08:01:03;;;;;;;13.13;8.82;;;;;;;16.65;37.27;102687.16;5111777;28;20071;-61
2023/02/09 08:03:35;;;;;;;14.45;9.13;;;;;;;16.70;37.08;102685.16;5112122;28;20081;-61
2023/02/09 08:06:11;;;;;;;17.27;9.77;;;;;;;16.72;37.07;102684.13;5111820;28;20103;-61
2023/02/09 08:08:39;;;;;;;14.25;9.20;;;;;;;16.73;36.97;102687.69;5112019;28;20123;-61
2023/02/09 08:11:08;;;;;;;14.35;8.98;;;;;;;16.71;37.04;102681.50;5111734;28;20044;-62
2023/02/09 08:13:39;;;;;;;13.20;8.93;;;;;;;16.67;37.09;102677.16;5114331;28;20454;-60
2023/02/09 08:16:11;;;;;;;13.77;9.43;;;;;;;16.63;37.10;102676.44;5115914;28;20453;-61
2023/02/09 08:18:44;;;;;;;13.30;9.40;;;;;;;16.59;37.11;102675.69;5115730;28;20071;-61
2023/02/09 08:21:16;;;;;;;14.10;8.85;;;;;;;16.55;37.05;102667.84;5115525;28;20035;-60
2023/02/09 08:23:49;;;;;;;15.90;9.55;;;;;;;16.48;36.97;102672.63;5116101;28;20058;-62
2023/02/09 08:26:17;;;;;;;14.90;9.57;;;;;;;16.41;36.90;102668.50;5115859;28;20044;-62
2023/02/09 08:28:46;;;;;;;12.50;9.35;;;;;;;16.37;37.14;102674.97;5115668;28;20096;-62
2023/02/09 08:31:34;;;;;;;12.48;8.43;;;;;;;16.28;37.48;102670.00;5115756;28;20051;-62
2023/02/09 08:34:04;;;;;;;12.90;8.95;;;;;;;16.23;37.55;102672.91;5115502;28;20051;-63
2023/02/09 08:36:33;;;;;;;13.82;8.93;;;;;;;16.18;37.71;102680.31;5115500;28;20480;-62
2023/02/09 08:39:02;;;;;;;12.70;9.02;;;;;;;16.12;37.51;102675.22;5115503;28;20066;-61
2023/02/09 08:41:30;;;;;;;13.77;8.88;;;;;;;16.06;37.57;102669.22;5115479;28;20047;-62
2023/02/09 08:43:58;;;;;;;14.00;8.75;;;;;;;16.00;37.42;102673.94;5115524;28;20075;-61
2023/02/09 08:46:26;;;;;;;15.07;9.18;;;;;;;15.94;37.29;102668.84;5115263;28;20128;-62
2023/02/09 08:48:54;;;;;;;14.80;9.20;;;;;;;15.87;37.47;102672.75;5115406;28;20052;-62
2023/02/09 08:51:24;;;;;;;12.85;9.20;;;;;;;15.82;37.55;102674.75;5115454;28;20419;-61
2023/02/09 08:53:55;;;;;;;14.32;9.52;;;;;;;15.78;37.19;102669.59;5115211;28;20050;-61
2023/02/09 08:56:24;;;;;;;13.30;9.27;;;;;;;15.72;36.94;102668.00;5115337;28;20101;-63
2023/02/09 08:58:54;;;;;;;14.00;8.75;;;;;;;15.66;36.28;102663.78;5115160;28;20118;-61
2023/02/09 09:01:23;;;;;;;12.00;8.98;;;;;;;15.62;36.14;102664.84;5115339;28;20098;-62
2023/02/09 09:03:51;;;;;;;15.13;9.10;;;;;;;15.57;36.54;102664.16;5115007;28;20039;-62
2023/02/09 09:06:20;;;;;;;13.52;8.75;;;;;;;15.53;35.67;102669.72;5115074;28;20552;-62
2023/02/09 09:08:51;;;;;;;13.95;8.63;;;;;;;15.50;36.45;102677.94;5115100;28;20074;-62
2023/02/09 09:11:19;;;;;;;12.35;9.00;;;;;;;15.44;37.02;102666.50;5114977;28;20539;-62
2023/02/09 09:13:47;;;;;;;13.75;9.25;;;;;;;15.39;36.70;102670.31;5114908;28;20120;-63
2023/02/09 09:16:17;;;;;;;13.63;8.65;;;;;;;15.37;37.19;102669.50;5115153;28;20077;-62
2023/02/09 09:18:46;;;;;;;12.43;8.55;;;;;;;15.33;37.01;102663.38;5114982;28;20122;-63
2023/02/09 09:21:15;;;;;;;14.45;8.82;;;;;;;15.29;37.00;102672.50;5114669;28;20096;-62
2023/02/09 09:23:44;;;;;;;13.07;8.63;;;;;;;15.26;37.01;102672.66;5114421;28;20377;-62
2023/02/09 09:26:15;;;;;;;13.13;9.20;;;;;;;15.22;36.84;102668.31;5113903;28;20051;-62
2023/02/09 09:28:43;;;;;;;13.65;8.60;;;;;;;15.19;37.02;102676.53;5114680;28;20065;-61
2023/02/09 09:31:14;;;;;;;15.00;9.35;;;;;;;15.16;36.45;102674.84;5114561;28;20387;-62
2023/02/09 09:33:42;;;;;;;13.93;9.02;;;;;;;15.13;36.78;102668.69;5114488;28;20042;-62
2023/02/09 09:36:13;;;;;;;13.38;9.40;;;;;;;15.11;36.81;102671.47;5114507;28;20054;-63
2023/02/09 09:38:41;;;;;;;14.30;8.98;;;;;;;15.09;36.39;102672.47;5114220;28;20496;-63
2023/02/09 09:41:22;;;;;;;13.80;9.20;;;;;;;15.06;36.78;102678.84;5114583;28;20044;-63
2023/02/09 09:43:52;;;;;;;13.10;8.95;;;;;;;15.03;36.63;102675.38;5114193;28;20451;-63
2023/02/09 09:46:26;;;;;;;14.77;9.82;;;;;;;15.02;36.41;102684.41;5114806;28;20419;-63
2023/02/09 09:48:57;;;;;;;14.00;9.30;;;;;;;14.99;36.59;102681.84;5114140;28;20089;-62
2023/02/09 09:51:34;;;;;;;12.60;8.45;;;;;;;15.00;36.84;102684.47;5114219;28;20047;-63
2023/02/09 09:54:05;;;;;;;14.43;8.82;;;;;;;14.99;36.89;102679.16;5114289;28;20048;-63
2023/02/09 09:56:34;;;;;;;14.52;8.30;;;;;;;14.97;36.04;102684.59;5114107;28;20043;-64
2023/02/09 09:59:02;;;;;;;13.50;8.77;;;;;;;14.95;35.84;102677.50;5114052;28;20510;-63
2023/02/09 10:01:32;;;;;;;14.90;10.23;;;;;;;14.98;36.16;102690.84;5113862;28;20583;-62
2023/02/09 10:04:06;;;;;;;14.25;9.85;;;;;;;14.97;36.29;102683.72;5114210;28;20069;-62
2023/02/09 10:06:40;;;;;;;12.95;8.80;;;;;;;14.95;35.63;102678.38;5113650;28;20044;-63
2023/02/09 10:09:21;;;;;;;14.93;10.10;;;;;;;14.97;36.06;102676.53;5113792;28;20043;-62
2023/02/09 10:11:56;;;;;;;14.23;9.10;;;;;;;14.98;36.21;102672.91;5113867;28;20043;-63
2023/02/09 10:14:25;;;;;;;13.82;9.65;;;;;;;14.99;35.83;102673.78;5114018;28;20054;-64
2023/02/09 10:16:53;;;;;;;13.50;9.32;;;;;;;15.00;35.68;102670.16;5113748;28;20442;-63
2023/02/09 10:19:24;;;;;;;13.27;9.18;;;;;;;14.99;35.80;102660.34;5113618;28;20062;-63
2023/02/09 10:21:53;;;;;;;11.93;8.68;;;;;;;15.02;35.89;102657.53;5113740;28;20097;-62
2023/02/09 10:24:24;;;;;;;14.48;9.27;;;;;;;15.02;36.01;102647.63;5113389;28;20179;-64
2023/02/09 10:27:06;;;;;;;12.52;8.82;;;;;;;15.04;35.90;102642.19;5113557;28;20055;-63
2023/02/09 10:29:35;;;;;;;13.38;9.30;;;;;;;15.03;36.07;102646.69;5113375;28;20122;-64
2023/02/09 10:32:12;;;;;;;13.75;9.15;;;;;;;15.06;36.01;102643.91;5113629;28;20054;-63
2023/02/09 10:34:46;;;;;;;14.63;9.57;;;;;;;15.08;36.07;102641.16;5113433;28;20079;-65
2023/02/09 10:37:25;;;;;;;14.45;9.10;;;;;;;15.10;36.05;102639.28;5113375;28;20549;-64
2023/02/09 10:40:01;;;;;;;12.43;8.70;;;;;;;15.13;36.05;102631.06;5113221;28;20061;-64
2023/02/09 10:42:34;;;;;;;13.45;8.77;;;;;;;15.15;36.21;102637.25;5113116;28;20484;-64
2023/02/09 10:45:12;;;;;;;13.07;9.18;;;;;;;15.17;36.09;102630.03;5113388;28;20072;-63
2023/02/09 10:47:40;;;;;;;12.90;8.88;;;;;;;15.18;36.03;102616.50;5113095;28;20075;-64
2023/02/09 10:50:18;;;;;;;13.35;8.73;;;;;;;15.21;36.14;102614.63;5113364;28;20050;-64
2023/02/09 10:53:00;;;;;;;13.32;8.93;;;;;;;15.20;36.00;102605.69;5112884;28;20130;-65
2023/02/09 10:55:35;;;;;;;12.73;9.05;;;;;;;15.24;36.02;102615.34;5113206;28;20047;-62
2023/02/09 10:58:11;;;;;;;12.50;8.32;;;;;;;15.27;36.14;102599.13;5112830;28;20116;-63
2023/02/09 11:00:50;;;;;;;11.80;7.93;;;;;;;15.29;36.03;102597.22;5112887;28;20047;-64
2023/02/09 11:03:21;;;;;;;11.18;7.72;;;;;;;15.32;36.04;102596.22;5112581;28;20047;-63
2023/02/09 11:05:58;;;;;;;11.02;7.93;;;;;;;15.32;35.96;102597.09;5112791;28;20047;-64
2023/02/09 11:08:37;;;;;;;12.43;8.55;;;;;;;15.34;35.92;102591.63;5112604;28;20054;-64
2023/02/09 11:11:09;;;;;;;10.82;7.85;;;;;;;15.35;35.86;102586.22;5112545;28;20104;-64
2023/02/09 11:13:41;;;;;;;11.73;8.40;;;;;;;15.36;35.73;102577.22;5112692;28;20055;-62
2023/02/09 11:16:39;;;;;;;13.02;8.38;;;;;;;15.38;35.66;102578.00;5112670;28;20054;-63
2023/02/09 11:19:18;;;;;;;12.90;7.95;;;;;;;15.40;35.68;102572.56;5112551;28;20048;-63
2023/02/09 11:21:59;;;;;;;12.88;8.60;;;;;;;15.40;35.82;102567.19;5112628;28;20075;-62
2023/02/09 11:24:46;;;;;;;12.55;8.55;;;;;;;15.40;35.91;102559.97;5112321;28;20104;-63
2023/02/09 11:27:28;;;;;;;11.98;8.18;;;;;;;15.45;36.11;102557.13;5112346;28;20080;-63
2023/02/09 11:30:11;;;;;;;12.55;8.38;;;;;;;15.46;36.22;102556.16;5112706;28;20150;-64
2023/02/09 11:32:46;;;;;;;11.20;7.97;;;;;;;15.48;36.20;102556.09;5112706;28;20047;-63
2023/02/09 11:35:18;;;;;;;12.07;8.23;;;;;;;15.50;36.26;102549.69;5112302;28;20119;-63
2023/02/09 11:37:53;;;;;;;12.60;8.47;;;;;;;15.51;36.35;102543.38;5112236;28;20071;-63
2023/02/09 11:40:27;;;;;;;11.57;8.02;;;;;;;15.53;36.25;102548.69;5112110;28;20062;-63
2023/02/09 11:43:04;;;;;;;10.57;7.55;;;;;;;15.54;36.11;102547.72;5112255;28;20096;-62
2023/02/09 11:45:42;;;;;;;10.68;7.85;;;;;;;15.53;36.03;102538.78;5112088;28;20051;-64
2023/02/09 11:48:13;;;;;;;11.07;7.75;;;;;;;15.59;35.99;102537.66;5111695;28;20071;-62